createdAt,value
2018-11-23T00:00:30.288Z,1.40
2018-11-23T00:02:59.253Z,1.50
2018-11-23T00:05:27.641Z,1.70
2018-11-23T00:07:56.622Z,1.50
2018-11-23T00:10:26.353Z,1.60
2018-11-23T00:12:54.762Z,1.70
2018-11-23T00:15:24.206Z,1.80
2018-11-23T00:17:52.632Z,1.80
2018-11-23T00:20:23.460Z,1.90
2018-11-23T00:22:51.788Z,1.90
2018-11-23T00:25:22.216Z,1.90
2018-11-23T00:27:51.191Z,1.90
2018-11-23T00:30:21.145Z,1.80
2018-11-23T00:32:49.911Z,1.90
2018-11-23T00:35:20.848Z,1.90
2018-11-23T00:37:49.774Z,2.00
2018-11-23T00:40:24.576Z,1.80
2018-11-23T00:42:53.432Z,1.50
2018-11-23T00:45:21.946Z,1.60
2018-11-23T00:47:50.896Z,1.60
2018-11-23T00:50:20.609Z,1.80
2018-11-23T00:52:49.450Z,1.80
2018-11-23T00:55:19.016Z,1.80
2018-11-23T00:57:47.428Z,1.80
2018-11-23T01:00:19.368Z,1.70
2018-11-23T01:02:47.743Z,1.70
2018-11-23T01:05:17.572Z,1.70
2018-11-23T01:07:47.250Z,1.60
2018-11-23T01:10:17.184Z,1.60
2018-11-23T01:12:46.728Z,1.60
2018-11-23T01:15:15.276Z,1.60
2018-11-23T01:17:43.751Z,1.60
2018-11-23T01:20:15.324Z,1.60
2018-11-23T01:22:44.708Z,1.60
2018-11-23T01:25:14.546Z,1.50
2018-11-23T01:27:43.790Z,1.50
2018-11-23T01:30:15.094Z,1.30
2018-11-23T01:32:43.439Z,1.00
2018-11-23T01:35:11.890Z,1.10
2018-11-23T01:37:40.569Z,1.10
2018-11-23T01:40:10.851Z,1.30
2018-11-23T01:42:39.276Z,1.10
2018-11-23T01:45:08.634Z,1.10
2018-11-23T01:47:37.016Z,1.30
2018-11-23T01:50:08.658Z,1.00
2018-11-23T01:52:37.017Z,1.00
2018-11-23T01:55:06.580Z,1.20
2018-11-23T01:57:34.906Z,1.30
2018-11-23T02:00:03.502Z,1.40
2018-11-23T02:02:31.887Z,1.20
2018-11-23T02:05:00.391Z,1.30
2018-11-23T02:07:28.718Z,1.40
2018-11-23T02:09:57.680Z,1.40
2018-11-23T02:12:26.003Z,1.40
2018-11-23T02:14:54.644Z,1.40
2018-11-23T02:17:23.850Z,1.30
2018-11-23T02:19:54.342Z,0.90
2018-11-23T02:22:22.966Z,1.00
2018-11-23T02:24:51.631Z,1.20
2018-11-23T02:27:20.051Z,1.30
2018-11-23T02:29:48.600Z,1.40
2018-11-23T02:32:17.033Z,1.40
2018-11-23T02:34:45.483Z,1.40
2018-11-23T02:37:14.045Z,1.50
2018-11-23T02:39:42.456Z,1.20
2018-11-23T02:42:10.848Z,1.20
2018-11-23T02:44:39.280Z,1.30
2018-11-23T02:47:07.620Z,1.30
2018-11-23T02:49:36.346Z,1.10
2018-11-23T02:52:04.758Z,0.90
2018-11-23T02:54:33.176Z,1.00
2018-11-23T02:57:01.583Z,1.00
2018-11-23T02:59:29.982Z,0.90
2018-11-23T03:01:58.333Z,1.00
2018-11-23T03:04:26.641Z,0.90
2018-11-23T03:06:55.058Z,1.00
2018-11-23T03:09:23.423Z,1.10
2018-11-23T03:11:51.842Z,1.20
2018-11-23T03:14:20.264Z,1.20
2018-11-23T03:16:48.708Z,1.20
2018-11-23T03:19:17.130Z,1.20
2018-11-23T03:21:45.518Z,1.10
2018-11-23T03:24:13.873Z,1.10
2018-11-23T03:26:42.238Z,1.10
2018-11-23T03:29:10.670Z,1.10
2018-11-23T03:31:39.115Z,1.10
2018-11-23T03:34:07.520Z,1.10
2018-11-23T03:36:35.890Z,1.10
2018-11-23T03:39:06.399Z,0.90
2018-11-23T03:41:34.774Z,0.90
2018-11-23T03:44:03.178Z,1.10
2018-11-23T03:46:31.530Z,1.10
2018-11-23T03:48:59.968Z,0.90
2018-11-23T03:51:28.372Z,0.90
2018-11-23T03:53:56.709Z,1.00
2018-11-23T03:56:25.020Z,1.10
2018-11-23T03:58:53.404Z,1.10
2018-11-23T04:01:22.216Z,1.00
2018-11-23T04:03:50.664Z,1.10
2018-11-23T04:06:19.000Z,1.00
2018-11-23T04:08:47.348Z,0.90
2018-11-23T04:11:15.703Z,0.80
2018-11-23T04:13:44.072Z,0.80
2018-11-23T04:16:12.495Z,0.90
2018-11-23T04:18:40.929Z,0.90
2018-11-23T04:21:09.375Z,1.00
2018-11-23T04:23:37.794Z,0.70
2018-11-23T04:26:06.107Z,0.50
2018-11-23T04:28:34.492Z,0.60
2018-11-23T04:31:02.863Z,0.70
2018-11-23T04:33:31.207Z,0.90
2018-11-23T04:35:59.660Z,0.80
2018-11-23T04:38:28.090Z,0.80
2018-11-23T04:40:56.472Z,0.70
2018-11-23T04:43:24.815Z,0.70
2018-11-23T04:45:53.200Z,0.80
2018-11-23T04:48:21.579Z,1.10
2018-11-23T04:50:49.881Z,1.20
2018-11-23T04:53:18.297Z,1.20
2018-11-23T04:55:46.698Z,1.20
2018-11-23T04:58:15.138Z,1.30
2018-11-23T05:00:43.455Z,1.30
2018-11-23T05:03:11.884Z,1.10
2018-11-23T05:05:40.177Z,1.00
2018-11-23T05:08:08.517Z,0.80
2018-11-23T05:10:36.942Z,0.80
2018-11-23T05:13:05.518Z,1.00
2018-11-23T05:15:33.897Z,0.80
2018-11-23T05:18:02.284Z,0.80
2018-11-23T05:20:30.688Z,1.00
2018-11-23T05:22:59.110Z,0.80
2018-11-23T05:25:27.488Z,0.70
2018-11-23T05:27:55.867Z,0.80
2018-11-23T05:30:24.208Z,0.90
2018-11-23T05:32:52.566Z,1.10
2018-11-23T05:35:20.927Z,1.10
2018-11-23T05:37:49.266Z,1.00
2018-11-23T05:40:19.075Z,0.90
2018-11-23T05:42:47.406Z,1.00
2018-11-23T05:45:17.110Z,0.90
2018-11-23T05:47:45.927Z,0.70
2018-11-23T05:50:21.160Z,0.50
2018-11-23T05:52:49.519Z,0.70
2018-11-23T05:55:17.846Z,0.60
2018-11-23T05:57:46.476Z,0.50
2018-11-23T06:00:17.780Z,0.60
2018-11-23T06:02:46.194Z,0.80
2018-11-23T06:05:14.595Z,0.80
2018-11-23T06:07:42.962Z,0.70
2018-11-23T06:10:14.537Z,0.50
2018-11-23T06:12:43.016Z,0.70
2018-11-23T06:15:14.976Z,0.60
2018-11-23T06:17:43.984Z,0.60
2018-11-23T06:20:14.466Z,0.80
2018-11-23T06:22:43.774Z,0.80
2018-11-23T06:25:15.792Z,0.90
2018-11-23T06:27:44.122Z,0.90
2018-11-23T06:30:13.346Z,0.90
2018-11-23T06:32:53.106Z,0.70
2018-11-23T06:35:21.668Z,0.80
2018-11-23T06:37:50.021Z,0.50
2018-11-23T06:40:19.026Z,0.60
2018-11-23T06:42:47.411Z,0.70
2018-11-23T06:45:15.839Z,0.80
2018-11-23T06:47:44.300Z,0.90
2018-11-23T06:50:14.551Z,1.10
2018-11-23T06:52:42.970Z,1.00
2018-11-23T06:55:12.076Z,0.80
2018-11-23T06:57:40.957Z,0.80
2018-11-23T07:00:13.052Z,1.00
2018-11-23T07:02:42.012Z,0.80
2018-11-23T07:05:10.864Z,0.80
2018-11-23T07:07:39.301Z,0.90
2018-11-23T07:10:09.061Z,1.10
2018-11-23T07:12:37.983Z,1.10
2018-11-23T07:15:08.804Z,1.00
2018-11-23T07:17:37.598Z,1.10
2018-11-23T07:20:07.734Z,1.20
2018-11-23T07:22:36.106Z,1.00
2018-11-23T07:25:04.974Z,0.90
2018-11-23T07:27:33.376Z,1.00
2018-11-23T07:30:01.886Z,0.90
2018-11-23T07:32:30.261Z,0.90
2018-11-23T07:34:58.667Z,1.00
2018-11-23T07:37:27.047Z,1.10
2018-11-23T07:40:06.792Z,1.20
2018-11-23T07:42:35.100Z,1.20
2018-11-23T07:45:03.524Z,1.00
2018-11-23T07:47:31.892Z,0.90
2018-11-23T07:50:00.358Z,1.10
2018-11-23T07:52:28.777Z,1.10
2018-11-23T07:54:57.188Z,1.10
2018-11-23T07:57:25.549Z,1.10
2018-11-23T07:59:53.901Z,1.20
2018-11-23T08:02:22.360Z,1.30
2018-11-23T08:04:50.709Z,1.20
2018-11-23T08:07:19.135Z,1.00
2018-11-23T08:09:47.556Z,0.90
2018-11-23T08:12:16.000Z,0.90
2018-11-23T08:14:44.344Z,0.90
2018-11-23T08:17:12.766Z,0.90
2018-11-23T08:19:47.284Z,0.80
2018-11-23T08:22:09.758Z,0.80
2018-11-23T08:24:38.199Z,0.90
2018-11-23T08:27:06.614Z,1.20
2018-11-23T08:29:35.032Z,1.10
2018-11-23T08:32:03.484Z,1.00
2018-11-23T08:34:31.954Z,1.20
2018-11-23T08:37:00.760Z,1.40
2018-11-23T08:39:29.241Z,1.50
2018-11-23T08:41:57.621Z,1.50
2018-11-23T08:44:50.166Z,1.10
2018-11-23T08:47:18.582Z,1.10
2018-11-23T08:49:47.014Z,1.20
2018-11-23T08:52:15.376Z,1.50
2018-11-23T08:54:44.000Z,1.30
2018-11-23T08:57:12.379Z,1.60
2018-11-23T08:59:40.791Z,1.70
2018-11-23T09:02:09.330Z,1.80
2018-11-23T09:04:37.647Z,1.50
2018-11-23T09:07:06.094Z,1.50
2018-11-23T09:09:34.497Z,1.50
2018-11-23T09:12:02.901Z,1.30
2018-11-23T09:14:31.256Z,1.50
2018-11-23T09:16:59.724Z,1.50
2018-11-23T09:19:28.072Z,1.50
2018-11-23T09:21:56.432Z,1.90
2018-11-23T09:24:24.894Z,1.80
2018-11-23T09:26:53.204Z,1.80
2018-11-23T09:29:21.664Z,1.80
2018-11-23T09:31:50.009Z,2.00
2018-11-23T09:34:18.382Z,2.10
2018-11-23T09:36:46.805Z,1.90
2018-11-23T09:39:15.222Z,2.10
2018-11-23T09:41:43.550Z,1.80
2018-11-23T09:44:11.914Z,1.80
2018-11-23T09:46:40.232Z,2.00
2018-11-23T09:49:08.611Z,1.90
2018-11-23T09:51:36.996Z,1.90
2018-11-23T09:54:05.524Z,1.90
2018-11-23T09:56:34.045Z,2.00
2018-11-23T09:59:02.460Z,1.90
2018-11-23T10:01:31.452Z,1.80
2018-11-23T10:03:59.810Z,1.80
2018-11-23T10:06:28.168Z,1.90
2018-11-23T10:08:56.535Z,2.00
2018-11-23T10:11:24.846Z,2.30
2018-11-23T10:13:53.330Z,2.10
2018-11-23T10:16:21.905Z,2.10
2018-11-23T10:18:50.284Z,2.20
2018-11-23T10:21:18.714Z,2.10
2018-11-23T10:23:47.141Z,1.90
2018-11-23T10:26:15.498Z,1.90
2018-11-23T10:28:43.942Z,1.90
2018-11-23T10:31:12.285Z,1.80
2018-11-23T10:33:40.606Z,2.00
2018-11-23T10:36:09.070Z,2.20
2018-11-23T10:38:37.407Z,2.10
2018-11-23T10:41:05.810Z,2.10
2018-11-23T10:43:34.167Z,2.10
2018-11-23T10:46:02.514Z,2.20
2018-11-23T10:48:30.924Z,2.20
2018-11-23T10:50:59.298Z,2.20
2018-11-23T10:53:27.632Z,2.40
2018-11-23T10:55:56.051Z,2.40
2018-11-23T10:58:24.502Z,2.70
2018-11-23T11:00:58.408Z,2.70
2018-11-23T11:03:33.275Z,2.50
2018-11-23T11:06:08.962Z,2.40
2018-11-23T11:08:37.551Z,2.60
2018-11-23T11:11:06.184Z,2.60
2018-11-23T11:13:36.087Z,2.80
2018-11-23T11:16:04.850Z,2.90
2018-11-23T11:18:33.256Z,2.80
2018-11-23T11:21:01.667Z,2.90
2018-11-23T11:23:29.960Z,2.80
2018-11-23T11:25:58.324Z,2.90
2018-11-23T11:28:26.749Z,2.80
2018-11-23T11:30:55.200Z,2.70
2018-11-23T11:33:23.555Z,2.80
2018-11-23T11:35:52.251Z,2.90
2018-11-23T11:38:20.755Z,3.10
2018-11-23T11:40:49.159Z,3.20
2018-11-23T11:43:18.039Z,3.10
2018-11-23T11:45:46.914Z,2.90
2018-11-23T11:48:15.392Z,2.70
2018-11-23T11:50:43.777Z,2.80
2018-11-23T11:53:12.095Z,2.90
2018-11-23T11:55:40.500Z,2.90
2018-11-23T11:58:08.852Z,2.80
2018-11-23T12:00:37.184Z,2.60
2018-11-23T12:03:06.437Z,2.50
2018-11-23T12:05:35.019Z,2.60
2018-11-23T12:08:03.398Z,2.70
2018-11-23T12:10:31.703Z,2.70
2018-11-23T12:13:00.049Z,2.70
2018-11-23T12:15:28.405Z,2.80
2018-11-23T12:17:56.762Z,2.70
2018-11-23T12:20:25.741Z,2.90
2018-11-23T12:22:54.348Z,3.00
2018-11-23T12:25:23.310Z,2.80
2018-11-23T12:27:51.776Z,2.60
2018-11-23T12:30:29.114Z,2.70
2018-11-23T12:32:57.776Z,2.90
2018-11-23T12:35:26.226Z,3.00
2018-11-23T12:37:54.556Z,3.00
2018-11-23T12:40:22.970Z,4.10
2018-11-23T12:42:51.589Z,2.90
2018-11-23T12:45:21.251Z,3.00
2018-11-23T12:47:49.665Z,3.20
2018-11-23T12:50:19.981Z,3.20
2018-11-23T12:52:48.672Z,3.00
2018-11-23T12:55:17.700Z,2.90
2018-11-23T12:57:46.125Z,3.00
2018-11-23T13:00:21.914Z,3.00
2018-11-23T13:02:52.627Z,2.80
2018-11-23T13:05:21.812Z,2.90
2018-11-23T13:07:50.970Z,2.80
2018-11-23T13:10:19.332Z,2.80
2018-11-23T13:12:50.809Z,2.80
2018-11-23T13:15:22.940Z,2.90
2018-11-23T13:17:51.383Z,2.80
2018-11-23T13:20:19.706Z,2.70
2018-11-23T13:22:48.703Z,2.80
2018-11-23T13:25:18.749Z,2.80
2018-11-23T13:27:47.119Z,3.00
2018-11-23T13:30:18.250Z,2.90
2018-11-23T13:32:46.665Z,2.80
2018-11-23T13:35:16.380Z,2.90
2018-11-23T13:37:44.854Z,3.00
2018-11-23T13:40:18.678Z,3.10
2018-11-23T13:42:47.513Z,3.00
2018-11-23T13:45:17.538Z,2.90
2018-11-23T13:47:45.884Z,2.80
2018-11-23T13:50:15.682Z,2.80
2018-11-23T13:52:45.219Z,2.80
2018-11-23T13:55:13.603Z,2.90
2018-11-23T13:57:41.984Z,2.90
2018-11-23T14:00:13.135Z,3.00
2018-11-23T14:02:41.501Z,3.00
2018-11-23T14:05:12.648Z,3.20
2018-11-23T14:07:41.586Z,3.10
2018-11-23T14:10:12.256Z,2.90
2018-11-23T14:12:41.175Z,3.00
2018-11-23T14:15:13.150Z,3.00
2018-11-23T14:17:42.340Z,3.10
2018-11-23T14:20:11.943Z,2.90
2018-11-23T14:22:40.371Z,2.80
2018-11-23T14:25:10.982Z,2.80
2018-11-23T14:27:39.492Z,2.90
2018-11-23T14:30:10.978Z,3.10
2018-11-23T14:32:39.810Z,3.10
2018-11-23T14:35:10.282Z,3.00
2018-11-23T14:37:39.044Z,3.00
2018-11-23T14:40:08.066Z,3.00
2018-11-23T14:42:36.448Z,2.80
2018-11-23T14:45:07.000Z,2.80
2018-11-23T14:47:35.325Z,2.80
2018-11-23T14:50:03.754Z,2.80
2018-11-23T14:52:32.178Z,3.00
2018-11-23T14:55:00.553Z,3.00
2018-11-23T14:57:29.034Z,3.20
2018-11-23T14:59:57.492Z,3.10
2018-11-23T15:02:25.928Z,3.10
2018-11-23T15:04:54.356Z,3.00
2018-11-23T15:07:22.855Z,3.00
2018-11-23T15:09:51.197Z,2.90
2018-11-23T15:12:19.625Z,2.80
2018-11-23T15:14:48.074Z,2.90
2018-11-23T15:17:16.445Z,2.80
2018-11-23T15:19:44.836Z,2.70
2018-11-23T15:22:13.759Z,2.70
2018-11-23T15:24:42.238Z,2.80
2018-11-23T15:27:10.579Z,2.80
2018-11-23T15:29:38.902Z,2.80
2018-11-23T15:32:07.328Z,2.60
2018-11-23T15:34:35.702Z,2.60
2018-11-23T15:37:04.258Z,2.80
2018-11-23T15:39:32.658Z,2.90
2018-11-23T15:42:01.009Z,3.00
2018-11-23T15:44:29.448Z,3.00
2018-11-23T15:46:57.788Z,3.10
2018-11-23T15:49:26.128Z,2.90
2018-11-23T15:51:54.542Z,3.00
2018-11-23T15:54:22.994Z,3.00
2018-11-23T15:56:51.398Z,3.00
2018-11-23T15:59:19.883Z,2.90
2018-11-23T16:01:48.292Z,3.00
2018-11-23T16:04:16.696Z,3.00
2018-11-23T16:06:45.136Z,2.90
2018-11-23T16:09:14.520Z,2.90
2018-11-23T16:11:42.918Z,2.90
2018-11-23T16:14:11.277Z,2.80
2018-11-23T16:16:39.758Z,2.90
2018-11-23T16:19:08.186Z,2.90
2018-11-23T16:21:36.554Z,3.00
2018-11-23T16:24:05.809Z,3.10
2018-11-23T16:26:34.205Z,3.10
2018-11-23T16:29:02.626Z,3.00
2018-11-23T16:31:31.044Z,3.00
2018-11-23T16:33:59.344Z,3.00
2018-11-23T16:36:27.718Z,3.00
2018-11-23T16:38:56.138Z,3.00
2018-11-23T16:41:24.525Z,3.00
2018-11-23T16:43:53.183Z,2.90
2018-11-23T16:46:21.532Z,2.90
2018-11-23T16:48:49.915Z,2.90
2018-11-23T16:51:18.266Z,3.00
2018-11-23T16:53:46.868Z,2.90
2018-11-23T16:56:15.289Z,3.00
2018-11-23T16:58:43.715Z,3.10
2018-11-23T17:01:12.056Z,3.00
2018-11-23T17:03:40.505Z,2.90
2018-11-23T17:06:08.879Z,3.00
2018-11-23T17:08:39.907Z,3.00
2018-11-23T17:11:05.685Z,3.10
2018-11-23T17:13:34.086Z,3.00
2018-11-23T17:16:02.495Z,3.00
2018-11-23T17:18:30.895Z,3.00
2018-11-23T17:20:59.452Z,3.00
2018-11-23T17:23:27.735Z,3.00
2018-11-23T17:25:56.054Z,3.00
2018-11-23T17:28:24.492Z,3.10
2018-11-23T17:30:52.878Z,2.90
2018-11-23T17:33:21.380Z,3.00
2018-11-23T17:35:49.772Z,2.90
2018-11-23T17:38:18.122Z,3.00
2018-11-23T17:40:46.554Z,3.00
2018-11-23T17:43:14.842Z,3.10
2018-11-23T17:45:43.208Z,3.10
2018-11-23T17:48:11.582Z,3.20
2018-11-23T17:50:40.238Z,3.30
2018-11-23T17:53:08.556Z,3.20
2018-11-23T17:55:36.950Z,3.10
2018-11-23T17:58:05.708Z,3.20
2018-11-23T18:00:39.282Z,3.10
2018-11-23T18:03:03.836Z,3.00
2018-11-23T18:05:33.100Z,2.80
2018-11-23T18:08:01.907Z,2.90
2018-11-23T18:10:31.294Z,3.00
2018-11-23T18:13:00.233Z,3.10
2018-11-23T18:15:30.122Z,3.00
2018-11-23T18:17:59.608Z,2.90
2018-11-23T18:20:28.746Z,2.90
2018-11-23T18:22:58.196Z,2.90
2018-11-23T18:25:28.068Z,3.00
2018-11-23T18:28:00.430Z,2.90
2018-11-23T18:30:29.965Z,3.10
2018-11-23T18:32:58.373Z,3.00
2018-11-23T18:35:26.795Z,2.80
2018-11-23T18:37:55.194Z,2.80
2018-11-23T18:40:23.596Z,2.60
2018-11-23T18:42:52.035Z,2.50
2018-11-23T18:45:20.456Z,2.60
2018-11-23T18:47:48.897Z,2.60
2018-11-23T18:50:17.920Z,2.80
2018-11-23T18:52:46.327Z,2.70
2018-11-23T18:55:18.125Z,2.70
2018-11-23T18:57:43.508Z,2.60
2018-11-23T19:00:13.045Z,2.80
2018-11-23T19:02:42.126Z,2.90
2018-11-23T19:05:13.488Z,2.80
2018-11-23T19:07:41.911Z,2.70
2018-11-23T19:10:11.792Z,2.60
2018-11-23T19:12:40.200Z,2.60
2018-11-23T19:15:10.394Z,2.70
2018-11-23T19:17:38.728Z,2.60
2018-11-23T19:20:12.313Z,2.50
2018-11-23T19:22:41.522Z,2.60
2018-11-23T19:25:09.991Z,2.50
2018-11-23T19:27:38.448Z,2.60
2018-11-23T19:30:10.932Z,2.80
2018-11-23T19:32:39.272Z,2.90
2018-11-23T19:35:08.039Z,3.00
2018-11-23T19:37:36.458Z,2.80
2018-11-23T19:40:07.274Z,2.70
2018-11-23T19:42:35.709Z,2.70
2018-11-23T19:45:04.178Z,2.80
2018-11-23T19:47:32.582Z,2.70
2018-11-23T19:50:00.986Z,2.60
2018-11-23T19:52:29.302Z,2.70
2018-11-23T19:54:57.709Z,2.70
2018-11-23T19:57:26.087Z,2.80
2018-11-23T19:59:54.627Z,2.70
2018-11-23T20:02:23.129Z,2.80
2018-11-23T20:04:51.514Z,2.90
2018-11-23T20:07:19.934Z,2.80
2018-11-23T20:09:48.431Z,2.80
2018-11-23T20:12:16.938Z,2.80
2018-11-23T20:14:51.780Z,2.70
2018-11-23T20:17:20.101Z,2.60
2018-11-23T20:19:49.530Z,2.60
2018-11-23T20:22:18.210Z,2.60
2018-11-23T20:24:46.602Z,2.60
2018-11-23T20:27:14.964Z,2.70
2018-11-23T20:29:43.374Z,2.80
2018-11-23T20:32:11.748Z,2.80
2018-11-23T20:34:40.091Z,2.80
2018-11-23T20:37:08.496Z,2.70
2018-11-23T20:39:36.846Z,2.70
2018-11-23T20:42:05.679Z,2.70
2018-11-23T20:44:34.049Z,2.80
2018-11-23T20:47:02.400Z,2.70
2018-11-23T20:49:30.804Z,2.70
2018-11-23T20:51:59.222Z,2.70
2018-11-23T20:54:27.629Z,2.10
2018-11-23T20:56:55.975Z,2.70
2018-11-23T20:59:26.133Z,2.80
2018-11-23T21:01:54.867Z,2.90
2018-11-23T21:04:23.113Z,2.80
2018-11-23T21:06:51.534Z,3.00
2018-11-23T21:09:19.977Z,2.80
2018-11-23T21:11:48.413Z,3.00
2018-11-23T21:14:16.781Z,3.00
2018-11-23T21:16:45.175Z,2.90
2018-11-23T21:19:13.586Z,3.00
2018-11-23T21:21:41.972Z,3.10
2018-11-23T21:24:10.335Z,3.20
2018-11-23T21:26:38.715Z,3.00
2018-11-23T21:29:07.070Z,2.90
2018-11-23T21:31:35.377Z,3.00
2018-11-23T21:34:03.746Z,2.70
2018-11-23T21:36:32.078Z,2.70
2018-11-23T21:39:00.617Z,2.80
2018-11-23T21:41:29.745Z,2.80
2018-11-23T21:43:57.514Z,2.80
2018-11-23T21:46:25.865Z,2.70
2018-11-23T21:48:54.764Z,2.60
2018-11-23T21:51:23.150Z,2.70
2018-11-23T21:53:51.528Z,2.80
2018-11-23T21:56:20.015Z,2.80
2018-11-23T21:58:48.492Z,2.70
2018-11-23T22:01:16.955Z,2.80
2018-11-23T22:03:45.586Z,2.60
2018-11-23T22:06:14.061Z,2.80
2018-11-23T22:08:49.124Z,2.80
2018-11-23T22:11:17.637Z,3.00
2018-11-23T22:13:46.053Z,3.00
2018-11-23T22:16:14.438Z,2.80
2018-11-23T22:18:42.834Z,2.90
2018-11-23T22:21:11.188Z,2.90
2018-11-23T22:23:39.529Z,3.10
2018-11-23T22:26:07.935Z,3.10
2018-11-23T22:28:36.290Z,3.20
2018-11-23T22:31:04.912Z,3.20
2018-11-23T22:33:33.253Z,2.90
2018-11-23T22:36:01.670Z,2.90
2018-11-23T22:38:30.093Z,3.00
2018-11-23T22:40:58.549Z,3.10
2018-11-23T22:43:26.888Z,3.00
2018-11-23T22:45:55.267Z,3.00
2018-11-23T22:48:23.663Z,3.00
2018-11-23T22:50:52.110Z,3.10
2018-11-23T22:53:20.582Z,3.10
2018-11-23T22:55:48.942Z,3.10
2018-11-23T22:58:17.375Z,3.10
2018-11-23T23:00:45.864Z,3.20
2018-11-23T23:03:14.521Z,3.10
2018-11-23T23:05:42.901Z,3.10
2018-11-23T23:08:11.270Z,3.20
2018-11-23T23:10:39.712Z,3.30
2018-11-23T23:13:08.075Z,3.30
2018-11-23T23:15:36.500Z,3.30
2018-11-23T23:18:04.997Z,3.30
2018-11-23T23:20:33.455Z,3.10
2018-11-23T23:23:01.886Z,3.20
2018-11-23T23:25:30.237Z,3.10
2018-11-23T23:27:58.561Z,3.00
2018-11-23T23:30:26.985Z,3.10
2018-11-23T23:32:55.335Z,3.10
2018-11-23T23:35:23.722Z,3.30
2018-11-23T23:37:52.092Z,3.20
2018-11-23T23:40:20.537Z,3.20
2018-11-23T23:42:48.933Z,3.20
2018-11-23T23:45:18.871Z,3.20
2018-11-23T23:47:47.319Z,3.00
2018-11-23T23:50:18.769Z,3.10
2018-11-23T23:52:47.142Z,3.10
2018-11-23T23:55:15.560Z,3.10
2018-11-23T23:57:45.003Z,3.10
